Hlavní strana
METAR-TAF:

METAR-TAF

Letiště :

Schenck Field

Clarinda, Iowa, Spojené státy americké

zeměpisná šířka: 40-43N, zeměpisná délka: 095-02W, výška: 303 m

Aktuální stav počasí

Zpráva byla vytvořena před 24 minutami, v 01:35 UTC
Severoseverovýchodní vítr 12 kt s nárazy do 21 kt
Teplota 1°C
Vlhkost vzduchu 59%
Tlak 1025 hPa
Viditelnost: 16.1 km
Oblačno až skoro zataženo ve výšce 3200 ft
Oblačno až skoro zataženo ve výšce 3900 ft
Oblačno až skoro zataženo ve výšce 10000 ft

METAR: KICL 260135Z AUTO 03012G21KT 10SM BKN032 BKN039 BKN100 01/M06 A3026 RMK AO2

Čas: 19:59 (01:59 UTC)


TAF: chybějící

Stav a předpovědi počasí z více než 4 000 letišť (zprávy METAR a TAF).

Červené a žluté tečky na mapě představují dostupné meteorologické stanice.

Když kurzor umístíte na tečku, zobrazí se název stanice.

Pak kliknutím zobrazíte stav a předpověď počasí.

Chcete-li změnit mapu, kliknutím na zelené tlačítko se znaménkem +mapu přiblížíte, kliknutím na zelené tlačítko se znaménkem – mapu oddálíte a kliknutím na zelené šipky přejdete na sousední mapy.


METAR-TAF: